createdAt,value
2018-04-07T00:01:10.750Z,77.08
2018-04-07T00:03:39.006Z,77.08
2018-04-07T00:06:08.029Z,77.09
2018-04-07T00:08:36.290Z,75.71
2018-04-07T00:11:04.583Z,76.29
2018-04-07T00:13:32.829Z,76.25
2018-04-07T00:16:01.848Z,76.88
2018-04-07T00:18:30.104Z,76.42
2018-04-07T00:20:58.389Z,76.08
2018-04-07T00:23:26.634Z,76.16
2018-04-07T00:25:55.664Z,75.56
2018-04-07T00:28:23.941Z,75.29
2018-04-07T00:30:52.198Z,74.82
2018-04-07T00:33:21.239Z,75.16
2018-04-07T00:35:49.521Z,75.71
2018-04-07T00:38:17.777Z,75.08
2018-04-07T00:40:46.060Z,75.26
2018-04-07T00:43:14.317Z,75.06
2018-04-07T00:45:42.578Z,75.33
2018-04-07T00:48:10.857Z,75.21
2018-04-07T00:50:39.109Z,75.55
2018-04-07T00:53:08.152Z,76.12
2018-04-07T00:55:36.404Z,77.12
2018-04-07T00:58:04.681Z,77.60
2018-04-07T01:00:32.983Z,77.85
2018-04-07T01:03:01.231Z,78.66
2018-04-07T01:05:29.540Z,78.53
2018-04-07T01:07:57.793Z,79.03
2018-04-07T01:10:26.068Z,80.31
2018-04-07T01:12:54.350Z,80.84
2018-04-07T01:15:23.436Z,81.49
2018-04-07T01:17:51.708Z,81.69
2018-04-07T01:20:19.965Z,81.34
2018-04-07T01:22:48.760Z,80.40
2018-04-07T01:25:17.769Z,80.39
2018-04-07T01:27:46.049Z,80.50
2018-04-07T01:30:14.308Z,79.53
2018-04-07T01:32:42.597Z,79.12
2018-04-07T01:35:10.844Z,79.95
2018-04-07T01:37:39.866Z,80.44
2018-04-07T01:40:08.138Z,80.58
2018-04-07T01:42:36.399Z,80.91
2018-04-07T01:45:05.436Z,81.16
2018-04-07T01:47:33.700Z,80.67
2018-04-07T01:50:01.947Z,81.02
2018-04-07T01:52:30.224Z,81.11
2018-04-07T01:54:59.248Z,81.68
2018-04-07T01:57:27.530Z,81.62
2018-04-07T01:59:55.800Z,81.83
2018-04-07T02:02:24.060Z,82.46
2018-04-07T02:04:52.336Z,82.64
2018-04-07T02:07:20.588Z,82.30
2018-04-07T02:09:49.637Z,82.97
2018-04-07T02:12:17.886Z,83.43
2018-04-07T02:14:46.268Z,83.56
2018-04-07T02:17:14.536Z,83.33
2018-04-07T02:19:42.798Z,82.84
2018-04-07T02:22:11.836Z,82.33
2018-04-07T02:24:40.103Z,82.46
2018-04-07T02:27:08.356Z,82.25
2018-04-07T02:29:36.626Z,82.19
2018-04-07T02:32:04.881Z,82.24
2018-04-07T02:34:33.982Z,82.01
2018-04-07T02:37:03.002Z,81.66
2018-04-07T02:39:31.260Z,81.90
2018-04-07T02:41:59.541Z,81.80
2018-04-07T02:44:27.807Z,81.55
2018-04-07T02:46:56.849Z,82.18
2018-04-07T02:49:25.111Z,82.01
2018-04-07T02:51:53.369Z,82.51
2018-04-07T02:54:21.643Z,83.71
2018-04-07T02:56:49.927Z,83.43
2018-04-07T02:59:19.217Z,83.25
2018-04-07T03:01:47.478Z,83.07
2018-04-07T03:04:16.511Z,82.89
2018-04-07T03:06:44.785Z,82.66
2018-04-07T03:09:13.053Z,83.82
2018-04-07T03:11:41.316Z,84.47
2018-04-07T03:14:09.563Z,84.43
2018-04-07T03:16:38.618Z,84.46
2018-04-07T03:19:06.888Z,84.10
2018-04-07T03:21:35.152Z,84.12
2018-04-07T03:24:03.437Z,83.53
2018-04-07T03:26:31.717Z,83.32
2018-04-07T03:28:59.972Z,83.85
2018-04-07T03:31:28.249Z,83.41
2018-04-07T03:33:56.521Z,83.72
2018-04-07T03:36:24.793Z,83.94
2018-04-07T03:38:53.064Z,84.26
2018-04-07T03:41:21.348Z,83.72
2018-04-07T03:43:49.612Z,83.06
2018-04-07T03:46:18.632Z,83.49
2018-04-07T03:48:46.903Z,82.99
2018-04-07T03:51:15.160Z,83.55
2018-04-07T03:53:44.205Z,84.09
2018-04-07T03:56:12.461Z,83.76
2018-04-07T03:58:40.725Z,84.40
2018-04-07T04:01:08.997Z,84.65
2018-04-07T04:03:37.261Z,84.55
2018-04-07T04:06:05.548Z,84.07
2018-04-07T04:08:33.804Z,84.40
2018-04-07T04:11:02.846Z,84.61
2018-04-07T04:13:31.118Z,84.88
2018-04-07T04:15:59.389Z,83.84
2018-04-07T04:18:27.671Z,83.24
2018-04-07T04:20:55.925Z,83.81
2018-04-07T04:23:24.225Z,84.14
2018-04-07T04:25:53.218Z,83.48
2018-04-07T04:28:21.466Z,83.67
2018-04-07T04:30:49.757Z,82.87
2018-04-07T04:33:18.008Z,83.16
2018-04-07T04:35:46.264Z,83.93
2018-04-07T04:38:15.305Z,84.07
2018-04-07T04:40:43.570Z,83.13
2018-04-07T04:43:11.839Z,83.49
2018-04-07T04:45:40.108Z,83.74
2018-04-07T04:48:08.378Z,83.86
2018-04-07T04:50:37.413Z,84.52
2018-04-07T04:53:05.717Z,84.43
2018-04-07T04:55:34.070Z,85.05
2018-04-07T04:58:02.353Z,85.01
2018-04-07T05:00:30.712Z,85.77
2018-04-07T05:02:58.981Z,86.17
2018-04-07T05:05:28.988Z,86.00
2018-04-07T05:07:57.289Z,85.17
2018-04-07T05:10:25.543Z,84.71
2018-04-07T05:12:53.800Z,85.00
2018-04-07T05:15:22.833Z,84.28
2018-04-07T05:17:51.099Z,84.06
2018-04-07T05:20:19.390Z,83.72
2018-04-07T05:22:47.646Z,83.21
2018-04-07T05:25:15.897Z,83.75
2018-04-07T05:27:44.933Z,84.33
2018-04-07T05:30:13.191Z,84.12
2018-04-07T05:32:41.468Z,83.18
2018-04-07T05:35:09.723Z,83.37
2018-04-07T05:37:37.981Z,83.85
2018-04-07T05:40:07.018Z,83.16
2018-04-07T05:42:35.269Z,82.61
2018-04-07T05:45:03.540Z,82.77
2018-04-07T05:47:32.560Z,82.63
2018-04-07T05:50:00.836Z,82.66
2018-04-07T05:52:29.116Z,83.12
2018-04-07T05:54:57.424Z,82.43
2018-04-07T05:57:25.696Z,81.78
2018-04-07T05:59:53.966Z,80.93
2018-04-07T06:02:22.216Z,80.21
2018-04-07T06:04:50.480Z,79.87
2018-04-07T06:07:18.745Z,79.58
2018-04-07T06:09:47.769Z,79.26
2018-04-07T06:12:16.057Z,78.73
2018-04-07T06:14:44.304Z,78.60
2018-04-07T06:17:12.583Z,78.81
2018-04-07T06:19:40.848Z,78.30
2018-04-07T06:22:09.127Z,77.15
2018-04-07T06:24:37.380Z,77.33
2018-04-07T06:27:06.418Z,76.49
2018-04-07T06:29:34.692Z,77.66
2018-04-07T06:32:02.945Z,77.85
2018-04-07T06:34:32.012Z,77.68
2018-04-07T06:37:00.273Z,77.49
2018-04-07T06:39:28.524Z,77.68
2018-04-07T06:41:56.810Z,76.87
2018-04-07T06:44:25.045Z,75.95
2018-04-07T06:46:53.316Z,75.93
2018-04-07T06:49:22.331Z,75.72
2018-04-07T06:51:50.581Z,74.80
2018-04-07T06:54:18.888Z,74.37
2018-04-07T06:56:47.144Z,74.18
2018-04-07T06:59:15.444Z,73.85
2018-04-07T07:01:43.746Z,73.11
2018-04-07T07:04:12.043Z,72.50
2018-04-07T07:06:41.104Z,72.11
2018-04-07T07:09:09.461Z,71.81
2018-04-07T07:11:37.751Z,71.21
2018-04-07T07:14:06.047Z,71.29
2018-04-07T07:16:34.308Z,72.81
2018-04-07T07:19:02.623Z,73.14
2018-04-07T07:21:30.880Z,73.17
2018-04-07T07:23:59.132Z,73.19
2018-04-07T07:26:27.417Z,72.38
2018-04-07T07:28:55.676Z,71.69
2018-04-07T07:31:23.953Z,70.88
2018-04-07T07:33:52.216Z,70.78
2018-04-07T07:36:20.526Z,70.71
2018-04-07T07:38:48.796Z,70.37
2018-04-07T07:41:17.061Z,70.38
2018-04-07T07:43:45.389Z,71.89
2018-04-07T07:46:13.624Z,72.67
2018-04-07T07:48:41.895Z,71.73
2018-04-07T07:51:10.157Z,70.32
2018-04-07T07:53:38.421Z,69.82
2018-04-07T07:56:06.692Z,69.81
2018-04-07T07:58:35.080Z,70.12
2018-04-07T08:01:03.359Z,69.07
2018-04-07T08:03:31.613Z,68.90
2018-04-07T08:06:00.652Z,67.29
2018-04-07T08:08:28.914Z,66.18
2018-04-07T08:10:57.184Z,62.46
2018-04-07T08:13:25.565Z,62.58
2018-04-07T08:15:53.837Z,62.07
2018-04-07T08:18:22.160Z,60.04
2018-04-07T08:20:50.761Z,59.92
2018-04-07T08:23:18.993Z,59.46
2018-04-07T08:25:47.269Z,60.08
2018-04-07T08:28:15.532Z,60.49
2018-04-07T08:30:43.832Z,58.94
2018-04-07T08:33:12.120Z,58.32
2018-04-07T08:35:40.391Z,57.56
2018-04-07T08:38:08.672Z,56.83
2018-04-07T08:40:36.944Z,57.83
2018-04-07T08:43:05.714Z,57.02
2018-04-07T08:45:34.149Z,56.55
2018-04-07T08:48:03.181Z,56.62
2018-04-07T08:50:31.461Z,56.96
2018-04-07T08:52:59.720Z,56.33
2018-04-07T08:55:28.012Z,57.35
2018-04-07T08:57:56.276Z,57.35
2018-04-07T09:00:24.565Z,56.01
2018-04-07T09:02:52.856Z,57.22
2018-04-07T09:05:21.122Z,56.13
2018-04-07T09:07:49.416Z,55.93
2018-04-07T09:10:17.691Z,56.28
2018-04-07T09:12:46.021Z,56.58
2018-04-07T09:15:14.296Z,55.41
2018-04-07T09:17:42.572Z,56.35
2018-04-07T09:20:10.857Z,55.92
2018-04-07T09:22:39.117Z,54.88
2018-04-07T09:25:08.140Z,55.56
2018-04-07T09:27:36.493Z,56.08
2018-04-07T09:30:04.755Z,54.58
2018-04-07T09:32:33.896Z,55.41
2018-04-07T09:35:02.174Z,54.53
2018-04-07T09:37:30.437Z,54.04
2018-04-07T09:39:58.712Z,53.87
2018-04-07T09:42:26.980Z,54.28
2018-04-07T09:44:55.264Z,54.44
2018-04-07T09:47:23.541Z,53.29
2018-04-07T09:49:51.801Z,52.85
2018-04-07T09:52:20.132Z,53.25
2018-04-07T09:54:48.397Z,53.60
2018-04-07T09:57:16.687Z,54.09
2018-04-07T09:59:44.964Z,53.45
2018-04-07T10:02:18.905Z,53.31
2018-04-07T10:04:47.946Z,52.72
2018-04-07T10:07:16.222Z,52.68
2018-04-07T10:09:44.530Z,52.30
2018-04-07T10:12:12.790Z,51.33
2018-04-07T10:14:41.141Z,52.28
2018-04-07T10:17:09.400Z,52.23
2018-04-07T10:19:37.664Z,51.84
2018-04-07T10:22:05.954Z,51.41
2018-04-07T10:24:34.223Z,51.36
2018-04-07T10:27:02.500Z,51.55
2018-04-07T10:29:30.838Z,50.97
2018-04-07T10:31:59.114Z,51.03
2018-04-07T10:34:27.405Z,51.14
2018-04-07T10:36:56.432Z,49.39
2018-04-07T10:39:24.702Z,50.86
2018-04-07T10:41:53.009Z,49.46
2018-04-07T10:44:21.296Z,49.43
2018-04-07T10:46:49.580Z,48.20
2018-04-07T10:49:17.845Z,47.75
2018-04-07T10:51:46.113Z,49.56
2018-04-07T10:54:14.391Z,48.18
2018-04-07T10:56:42.649Z,48.86
2018-04-07T10:59:10.936Z,48.81
2018-04-07T11:01:39.202Z,48.25
2018-04-07T11:04:07.504Z,49.12
2018-04-07T11:06:35.779Z,49.53
2018-04-07T11:09:04.068Z,47.97
2018-04-07T11:11:32.364Z,50.05
2018-04-07T11:14:00.652Z,46.54
2018-04-07T11:16:29.772Z,45.90
2018-04-07T11:18:58.059Z,44.35
2018-04-07T11:21:26.440Z,46.39
2018-04-07T11:23:54.753Z,44.21
2018-04-07T11:26:23.016Z,43.21
2018-04-07T11:28:51.280Z,44.29
2018-04-07T11:31:19.564Z,42.15
2018-04-07T11:33:47.824Z,42.75
2018-04-07T11:36:16.113Z,43.85
2018-04-07T11:38:44.367Z,42.27
2018-04-07T11:41:12.636Z,42.53
2018-04-07T11:43:40.940Z,44.44
2018-04-07T11:46:09.210Z,45.20
2018-04-07T11:48:37.484Z,42.23
2018-04-07T11:51:05.765Z,42.88
2018-04-07T11:53:34.035Z,43.09
2018-04-07T11:56:02.321Z,42.37
2018-04-07T11:58:30.596Z,42.50
2018-04-07T12:00:58.877Z,43.07
2018-04-07T12:03:27.136Z,44.14
2018-04-07T12:05:55.410Z,44.07
2018-04-07T12:08:23.746Z,43.31
2018-04-07T12:10:52.773Z,43.92
2018-04-07T12:13:21.057Z,41.11
2018-04-07T12:15:49.324Z,41.06
2018-04-07T12:18:17.600Z,43.09
2018-04-07T12:20:45.877Z,43.00
2018-04-07T12:23:14.145Z,41.47
2018-04-07T12:25:42.419Z,42.37
2018-04-07T12:28:10.689Z,43.67
2018-04-07T12:30:39.000Z,41.54
2018-04-07T12:33:07.280Z,41.03
2018-04-07T12:35:35.550Z,43.10
2018-04-07T12:38:03.840Z,39.97
2018-04-07T12:40:32.108Z,39.88
2018-04-07T12:43:00.396Z,39.33
2018-04-07T12:45:28.666Z,40.43
2018-04-07T12:47:56.952Z,39.17
2018-04-07T12:50:25.220Z,38.98
2018-04-07T12:52:53.494Z,38.54
2018-04-07T12:55:21.802Z,37.46
2018-04-07T12:57:50.073Z,37.52
2018-04-07T13:00:18.356Z,38.19
2018-04-07T13:02:46.632Z,37.61
2018-04-07T13:05:14.906Z,35.04
2018-04-07T13:07:43.184Z,33.13
2018-04-07T13:10:11.458Z,34.32
2018-04-07T13:12:39.732Z,34.53
2018-04-07T13:15:07.997Z,34.22
2018-04-07T13:17:36.272Z,33.28
2018-04-07T13:20:04.533Z,32.90
2018-04-07T13:22:32.804Z,32.16
2018-04-07T13:25:01.096Z,32.01
2018-04-07T13:27:29.361Z,31.81
2018-04-07T13:29:57.661Z,33.04
2018-04-07T13:32:25.922Z,29.92
2018-04-07T13:34:54.197Z,30.06
2018-04-07T13:37:22.482Z,29.24
2018-04-07T13:39:50.744Z,29.73
2018-04-07T13:42:19.023Z,28.69
2018-04-07T13:44:47.299Z,28.82
2018-04-07T13:47:15.556Z,28.82
2018-04-07T13:49:43.861Z,28.47
2018-04-07T13:52:12.121Z,28.30
2018-04-07T13:54:40.401Z,28.83
2018-04-07T13:57:08.660Z,30.40
2018-04-07T13:59:36.929Z,30.69
2018-04-07T14:02:05.208Z,30.15
2018-04-07T14:04:33.468Z,30.33
2018-04-07T14:07:01.761Z,29.72
2018-04-07T14:09:30.021Z,29.97
2018-04-07T14:11:58.300Z,29.85
2018-04-07T14:14:26.559Z,28.69
2018-04-07T14:16:55.588Z,28.40
2018-04-07T14:19:23.864Z,27.81
2018-04-07T14:21:52.132Z,27.65
2018-04-07T14:24:20.418Z,27.60
2018-04-07T14:26:48.681Z,27.23
2018-04-07T14:29:16.945Z,26.33
2018-04-07T14:31:45.239Z,26.72
2018-04-07T14:34:13.510Z,27.42
2018-04-07T14:36:41.794Z,25.81
2018-04-07T14:39:10.070Z,25.14
2018-04-07T14:41:38.344Z,25.47
2018-04-07T14:44:06.621Z,24.89
2018-04-07T14:46:34.908Z,25.35
2018-04-07T14:49:03.189Z,25.64
2018-04-07T14:51:31.456Z,25.19
2018-04-07T14:53:59.718Z,25.00
2018-04-07T14:56:28.002Z,26.53
2018-04-07T14:58:56.272Z,26.23
2018-04-07T15:01:24.558Z,27.75
2018-04-07T15:03:52.816Z,28.34
2018-04-07T15:06:21.085Z,29.01
2018-04-07T15:08:50.129Z,28.54
2018-04-07T15:11:18.392Z,28.54
2018-04-07T15:13:46.677Z,27.42
2018-04-07T15:16:14.940Z,28.45
2018-04-07T15:18:43.219Z,27.47
2018-04-07T15:21:11.505Z,28.95
2018-04-07T15:23:39.772Z,28.56
2018-04-07T15:26:08.053Z,29.41
2018-04-07T15:28:36.365Z,28.87
2018-04-07T15:31:04.652Z,27.80
2018-04-07T15:33:33.680Z,27.96
2018-04-07T15:36:01.968Z,28.80
2018-04-07T15:38:30.228Z,28.10
2018-04-07T15:40:58.493Z,27.99
2018-04-07T15:43:26.773Z,28.26
2018-04-07T15:45:55.035Z,25.99
2018-04-07T15:48:24.121Z,25.83
2018-04-07T15:50:52.371Z,25.92
2018-04-07T15:53:20.661Z,26.54
2018-04-07T15:55:48.917Z,25.45
2018-04-07T15:58:18.137Z,25.30
2018-04-07T16:00:46.413Z,24.57
2018-04-07T16:03:14.672Z,25.26
2018-04-07T16:05:42.947Z,25.53
2018-04-07T16:08:11.221Z,25.36
2018-04-07T16:10:39.495Z,25.01
2018-04-07T16:13:07.772Z,25.32
2018-04-07T16:15:36.033Z,24.72
2018-04-07T16:18:04.318Z,24.94
2018-04-07T16:20:32.581Z,25.05
2018-04-07T16:23:00.863Z,24.84
2018-04-07T16:25:29.124Z,24.79
2018-04-07T16:27:57.393Z,24.16
2018-04-07T16:30:25.677Z,24.47
2018-04-07T16:32:54.666Z,24.34
2018-04-07T16:35:23.053Z,23.89
2018-04-07T16:37:52.070Z,24.02
2018-04-07T16:40:20.345Z,23.96
2018-04-07T16:42:48.631Z,24.21
2018-04-07T16:45:17.002Z,25.11
2018-04-07T16:47:45.960Z,25.35
2018-04-07T16:50:14.222Z,25.62
2018-04-07T16:52:42.498Z,24.85
2018-04-07T16:55:10.770Z,25.11
2018-04-07T16:57:39.049Z,25.76
2018-04-07T17:00:07.323Z,26.12
2018-04-07T17:02:35.606Z,26.60
2018-04-07T17:05:03.865Z,27.39
2018-04-07T17:07:32.184Z,28.14
2018-04-07T17:10:00.457Z,29.00
2018-04-07T17:12:28.742Z,28.89
2018-04-07T17:14:57.005Z,28.43
2018-04-07T17:17:25.287Z,29.13
2018-04-07T17:19:53.557Z,28.65
2018-04-07T17:22:21.836Z,29.03
2018-04-07T17:24:50.104Z,30.09
2018-04-07T17:27:18.419Z,30.46
2018-04-07T17:29:46.704Z,31.85
2018-04-07T17:32:14.972Z,32.04
2018-04-07T17:34:43.246Z,33.08
2018-04-07T17:37:11.525Z,34.01
2018-04-07T17:39:39.805Z,34.91
2018-04-07T17:42:08.077Z,36.24
2018-04-07T17:44:36.371Z,36.63
2018-04-07T17:47:05.409Z,38.20
2018-04-07T17:49:43.607Z,40.42
2018-04-07T17:52:01.952Z,41.04
2018-04-07T17:54:30.233Z,41.84
2018-04-07T17:56:58.528Z,42.78
2018-04-07T17:59:26.788Z,43.92
2018-04-07T18:01:55.050Z,45.53
2018-04-07T18:04:23.329Z,45.87
2018-04-07T18:06:51.621Z,47.58
2018-04-07T18:09:19.889Z,48.10
2018-04-07T18:11:48.150Z,48.67
2018-04-07T18:14:16.434Z,49.38
2018-04-07T18:16:44.717Z,49.43
2018-04-07T18:19:12.992Z,50.42
2018-04-07T18:21:41.279Z,51.05
2018-04-07T18:24:09.590Z,52.10
2018-04-07T18:26:37.878Z,52.89
2018-04-07T18:29:06.143Z,52.59
2018-04-07T18:31:35.944Z,53.02
2018-04-07T18:34:04.277Z,53.68
2018-04-07T18:36:32.568Z,55.01
2018-04-07T18:39:00.824Z,54.97
2018-04-07T18:41:29.136Z,55.43
2018-04-07T18:43:57.426Z,54.87
2018-04-07T18:46:25.688Z,55.02
2018-04-07T18:48:53.988Z,56.99
2018-04-07T18:51:22.254Z,56.30
2018-04-07T18:53:50.586Z,56.24
2018-04-07T18:56:19.038Z,57.84
2018-04-07T18:58:47.373Z,57.48
2018-04-07T19:01:15.686Z,56.93
2018-04-07T19:03:43.980Z,57.53
2018-04-07T19:06:13.037Z,57.83
2018-04-07T19:08:41.331Z,60.07
2018-04-07T19:11:09.910Z,60.31
2018-04-07T19:13:39.017Z,60.38
2018-04-07T19:16:08.233Z,60.58
2018-04-07T19:18:37.473Z,60.63
2018-04-07T19:21:07.474Z,59.99
2018-04-07T19:23:37.570Z,59.53
2018-04-07T19:26:06.823Z,59.97
2018-04-07T19:28:36.053Z,60.64
2018-04-07T19:31:05.494Z,61.86
2018-04-07T19:33:35.481Z,61.71
2018-04-07T19:36:05.924Z,62.25
2018-04-07T19:38:35.238Z,62.49
2018-04-07T19:41:06.712Z,62.46
2018-04-07T19:43:35.850Z,62.46
2018-04-07T19:46:06.109Z,62.26
2018-04-07T19:48:36.118Z,63.16
2018-04-07T19:51:06.170Z,63.62
2018-04-07T19:53:35.458Z,63.55
2018-04-07T19:56:04.754Z,62.69
2018-04-07T19:58:34.108Z,63.10
2018-04-07T20:01:03.316Z,62.88
2018-04-07T20:03:32.840Z,62.64
2018-04-07T20:06:02.846Z,62.85
2018-04-07T20:08:32.257Z,62.54
2018-04-07T20:11:02.224Z,63.08
2018-04-07T20:13:31.625Z,63.34
2018-04-07T20:16:00.876Z,64.23
2018-04-07T20:18:30.085Z,64.74
2018-04-07T20:21:00.169Z,65.33
2018-04-07T20:23:29.462Z,65.40
2018-04-07T20:25:58.892Z,65.48
2018-04-07T20:28:28.993Z,64.98
2018-04-07T20:30:58.389Z,64.67
2018-04-07T20:33:27.840Z,65.34
2018-04-07T20:35:57.106Z,66.07
2018-04-07T20:38:26.434Z,68.06
2018-04-07T20:40:58.530Z,68.62
2018-04-07T20:43:27.750Z,67.91
2018-04-07T20:45:57.082Z,67.64
2018-04-07T20:48:27.118Z,67.85
2018-04-07T20:50:57.178Z,67.39
2018-04-07T20:53:26.450Z,67.62
2018-04-07T20:55:55.742Z,67.69
2018-04-07T20:58:25.067Z,69.16
2018-04-07T21:00:54.462Z,68.86
2018-04-07T21:03:23.755Z,68.93
2018-04-07T21:05:53.150Z,68.98
2018-04-07T21:08:22.511Z,69.69
2018-04-07T21:10:51.825Z,70.47
2018-04-07T21:13:21.048Z,71.42
2018-04-07T21:15:50.142Z,71.71
2018-04-07T21:18:20.104Z,72.05
2018-04-07T21:20:49.279Z,71.33
2018-04-07T21:23:18.648Z,71.62
2018-04-07T21:25:48.693Z,71.61
2018-04-07T21:28:18.173Z,71.72
2018-04-07T21:30:47.063Z,72.53
2018-04-07T21:33:15.706Z,72.60
2018-04-07T21:35:44.352Z,73.08
2018-04-07T21:38:12.821Z,75.28
2018-04-07T21:40:41.161Z,75.03
2018-04-07T21:43:10.263Z,74.53
2018-04-07T21:45:38.568Z,75.79
2018-04-07T21:48:06.843Z,76.29
2018-04-07T21:50:35.135Z,74.88
2018-04-07T21:53:03.408Z,73.87
2018-04-07T21:55:31.701Z,73.47
2018-04-07T21:57:59.972Z,72.91
2018-04-07T22:00:28.268Z,72.58
2018-04-07T22:02:57.388Z,72.49
2018-04-07T22:05:26.424Z,72.26
2018-04-07T22:07:54.761Z,72.32
2018-04-07T22:10:22.992Z,73.61
2018-04-07T22:12:51.293Z,75.64
2018-04-07T22:15:19.570Z,74.75
2018-04-07T22:17:47.832Z,74.17
2018-04-07T22:20:16.108Z,73.95
2018-04-07T22:22:44.380Z,73.98
2018-04-07T22:25:12.665Z,73.65
2018-04-07T22:27:40.937Z,73.75
2018-04-07T22:30:09.193Z,73.75
2018-04-07T22:32:37.521Z,75.81
2018-04-07T22:35:06.601Z,76.27
2018-04-07T22:37:34.906Z,75.94
2018-04-07T22:40:03.168Z,75.06
2018-04-07T22:42:32.217Z,75.87
2018-04-07T22:45:00.483Z,76.07
2018-04-07T22:47:28.750Z,78.26
2018-04-07T22:49:57.038Z,77.74
2018-04-07T22:52:25.303Z,77.42
2018-04-07T22:54:53.585Z,77.07
2018-04-07T22:57:21.841Z,76.90
2018-04-07T22:59:50.084Z,76.94
2018-04-07T23:02:19.128Z,76.83
2018-04-07T23:04:47.394Z,78.58
2018-04-07T23:07:15.671Z,78.77
2018-04-07T23:09:43.944Z,78.00
2018-04-07T23:12:12.205Z,77.69
2018-04-07T23:14:40.514Z,77.81
2018-04-07T23:17:08.751Z,78.15
2018-04-07T23:19:37.789Z,78.83
2018-04-07T23:22:06.828Z,78.27
2018-04-07T23:24:35.856Z,80.04
2018-04-07T23:27:04.131Z,80.69
2018-04-07T23:29:32.388Z,84.24
2018-04-07T23:32:00.672Z,84.97
2018-04-07T23:34:28.956Z,83.84
2018-04-07T23:36:57.229Z,82.73
2018-04-07T23:39:25.591Z,81.45
2018-04-07T23:41:53.843Z,80.44
2018-04-07T23:44:22.126Z,79.99
2018-04-07T23:46:50.372Z,79.47
2018-04-07T23:49:18.631Z,79.37
2018-04-07T23:51:46.904Z,78.99
2018-04-07T23:54:15.177Z,78.66
2018-04-07T23:56:43.456Z,79.11
2018-04-07T23:59:11.721Z,79.25
